Time;durP1;ratioP1;P1;durP2;ratioP2;P2;SDS_P1;SDS_P2;PMS_P1;PMS_P2;Temp;Humidity;BMP_temperature;BMP_pressure;BME280_temperature;BME280_humidity;BME280_pressure;Samples;Min_cycle;Max_cycle;Signal;HPM_P1;HPM_P2
2023/02/04 09:27:55;;;;;;;25.58;4.80;;;;;;;8.06;78.91;98266.72;2084782;28;20564;-64
2023/02/04 09:28:56;;;;;;;26.33;4.20;;;;;;;8.33;79.95;98271.69;2082427;28;20496;-64
2023/02/04 09:29:57;;;;;;;25.58;4.75;;;;;;;8.23;80.64;98277.84;2082548;28;20202;-64
2023/02/04 09:34:35;;;;;;;19.67;5.00;;;;;;;7.74;81.79;98281.72;2083950;28;20934;-62
2023/02/04 09:35:37;;;;;;;18.98;4.28;;;;;;;7.78;81.23;98288.63;2081526;28;20204;-62
2023/02/04 09:36:38;;;;;;;18.23;4.20;;;;;;;8.08;80.66;98289.25;2077335;28;20227;-63
2023/02/04 09:37:40;;;;;;;29.00;4.88;;;;;;;8.57;79.40;98287.09;2073869;28;20546;-63
2023/02/04 09:41:45;;;;;;;21.55;4.75;;;;;;;8.16;80.12;98297.00;2094713;27;20570;-62
2023/02/04 09:42:49;;;;;;;13.18;3.70;;;;;;;8.31;79.98;98309.88;2087088;28;20643;-62
2023/02/04 09:43:50;;;;;;;17.45;3.55;;;;;;;8.66;77.37;98300.88;2086951;28;20282;-62
2023/02/04 09:44:52;;;;;;;16.05;3.65;;;;;;;8.76;75.66;98296.44;2088499;28;20211;-62
2023/02/04 09:48:36;;;;;;;16.27;3.55;;;;;;;8.77;76.42;98302.50;2083158;28;20551;-62
2023/02/04 09:49:38;;;;;;;15.82;3.85;;;;;;;8.91;75.92;98312.78;2082548;28;20228;-62
2023/02/04 09:50:40;;;;;;;20.17;4.35;;;;;;;9.25;74.47;98314.97;2078765;28;20193;-63
2023/02/04 09:55:34;;;;;;;14.02;3.40;;;;;;;8.78;75.17;98306.84;2099983;27;21068;-62
2023/02/04 10:29:15;;;;;;;12.50;3.78;;;;;;;8.63;77.21;98307.88;2104216;27;20574;-62
2023/02/04 10:30:25;;;;;;;23.75;3.97;;;;;;;9.72;74.11;98299.56;2103623;28;20205;-63
2023/02/04 10:31:38;;;;;;;22.90;4.25;;;;;;;10.36;71.81;98302.03;2100394;28;20230;-62
2023/02/04 10:32:40;;;;;;;14.43;3.53;;;;;;;9.96;71.69;98290.50;2095223;28;20196;-62
2023/02/04 10:33:41;;;;;;;17.15;3.80;;;;;;;9.68;70.07;98297.91;2095379;28;20203;-62
2023/02/04 10:34:42;;;;;;;26.38;4.10;;;;;;;9.26;71.60;98299.31;2095245;28;20187;-62
2023/02/04 10:40:27;;;;;;;14.27;3.35;;;;;;;9.18;72.70;98288.13;2083271;27;20550;-62
2023/02/04 10:41:29;;;;;;;20.30;4.00;;;;;;;9.55;70.38;98294.56;2077065;28;20213;-62
2023/02/04 10:42:31;;;;;;;20.98;3.13;;;;;;;10.26;67.85;98283.91;2073977;28;20225;-62
2023/02/04 10:43:32;;;;;;;20.30;3.10;;;;;;;11.91;64.74;98294.53;2074011;28;20202;-63
2023/02/04 10:44:39;;;;;;;14.40;3.40;;;;;;;12.89;62.51;98275.44;2074094;28;20201;-62
2023/02/04 10:45:45;;;;;;;12.65;3.55;;;;;;;13.79;58.56;98290.31;2074493;28;20663;-62
2023/02/04 10:46:47;;;;;;;16.63;3.17;;;;;;;14.06;57.23;98295.59;2068042;28;20715;-63
2023/02/04 10:47:51;;;;;;;25.00;3.65;;;;;;;14.80;55.54;98293.97;2064854;28;20642;-62
2023/02/04 10:48:52;;;;;;;16.75;3.13;;;;;;;14.75;55.39;98288.00;2063952;28;20205;-63
2023/02/04 10:50:13;;;;;;;17.00;2.70;;;;;;;14.90;56.66;98302.41;2062731;28;20561;-63
2023/02/04 10:51:15;;;;;;;12.75;2.60;;;;;;;15.41;53.53;98303.16;2064626;28;20608;-63
2023/02/04 10:52:19;;;;;;;14.25;3.13;;;;;;;15.06;53.45;98294.81;2065011;28;20653;-63
2023/02/04 10:54:42;;;;;;;16.13;3.13;;;;;;;15.23;54.06;98285.44;2067436;28;20198;-63
2023/02/04 10:55:45;;;;;;;20.00;2.58;;;;;;;13.69;55.59;98295.84;2065994;28;20210;-63
2023/02/04 10:56:47;;;;;;;22.17;3.53;;;;;;;12.64;57.63;98295.34;2063841;28;20351;-63
2023/02/04 10:57:51;;;;;;;24.42;3.58;;;;;;;12.41;59.40;98302.91;2062652;28;20209;-63
2023/02/04 10:58:52;;;;;;;16.27;2.97;;;;;;;12.10;59.29;98294.97;2064104;28;20199;-63
2023/02/04 11:00:00;;;;;;;15.55;3.75;;;;;;;11.25;63.23;98302.97;2067375;28;20213;-62
2023/02/04 11:01:01;;;;;;;18.70;3.45;;;;;;;11.18;63.75;98296.13;2065060;28;20198;-62
2023/02/04 11:02:15;;;;;;;16.55;3.00;;;;;;;10.92;64.96;98302.75;2065638;28;20230;-62
2023/02/04 11:03:27;;;;;;;11.60;2.67;;;;;;;10.78;65.59;98304.78;2064968;28;20201;-62
2023/02/04 11:04:28;;;;;;;13.05;3.38;;;;;;;10.51;64.78;98303.53;2066708;28;20248;-62
2023/02/04 11:05:32;;;;;;;17.73;3.50;;;;;;;10.06;67.49;98299.03;2066605;28;20194;-62
2023/02/04 11:06:33;;;;;;;22.77;3.83;;;;;;;10.12;64.65;98299.78;2066695;28;20677;-62
2023/02/04 11:07:35;;;;;;;13.23;3.10;;;;;;;9.76;67.18;98303.84;2065579;28;20202;-62
2023/02/04 11:08:37;;;;;;;23.05;3.45;;;;;;;10.05;67.26;98303.38;2065257;28;20198;-62
2023/02/04 11:09:42;;;;;;;16.08;2.80;;;;;;;10.26;66.65;98299.56;2064596;28;20212;-62
2023/02/04 11:52:37;;;;;;;9.38;1.83;;;;;;;8.92;67.86;98296.28;2083389;28;20563;-61
2023/02/04 11:53:39;;;;;;;12.73;2.72;;;;;;;9.09;65.47;98298.66;2080066;28;20686;-62
2023/02/04 11:54:40;;;;;;;16.20;1.88;;;;;;;10.18;63.27;98303.19;2081586;28;20239;-61
2023/02/04 11:55:44;;;;;;;11.00;2.65;;;;;;;11.76;58.63;98285.28;2080544;28;20587;-62
2023/02/04 11:56:51;;;;;;;18.83;2.95;;;;;;;11.82;54.18;98285.16;2070688;28;20275;-62
2023/02/04 11:57:54;;;;;;;10.10;2.05;;;;;;;11.60;54.35;98290.88;2068795;28;20222;-62
2023/02/04 11:58:57;;;;;;;15.60;3.28;;;;;;;11.64;56.95;98296.03;2072740;28;20326;-62
2023/02/04 11:59:59;;;;;;;9.30;1.95;;;;;;;10.93;56.48;98293.16;2069373;28;20785;-64
2023/02/04 12:01:00;;;;;;;20.23;3.00;;;;;;;10.85;59.04;98293.28;2070619;28;20208;-64
2023/02/04 12:02:13;;;;;;;16.00;2.90;;;;;;;10.79;60.98;98277.75;2068714;28;20222;-64
2023/02/04 12:03:30;;;;;;;11.48;2.30;;;;;;;10.36;61.49;98291.59;2071201;28;20212;-63
2023/02/04 12:04:32;;;;;;;18.75;3.30;;;;;;;9.87;62.58;98293.25;2071287;28;20198;-64
2023/02/04 12:55:03;;;;;;;13.25;2.22;;;;;;;9.47;61.29;98289.47;2116980;27;21294;-61
2023/02/04 12:56:05;;;;;;;10.38;1.70;;;;;;;10.84;60.01;98299.41;2110522;28;20253;-65
2023/02/04 12:57:06;;;;;;;9.23;2.00;;;;;;;11.69;57.09;98317.72;2093668;28;20265;-62
2023/02/04 12:58:08;;;;;;;13.35;1.45;;;;;;;12.55;56.78;98306.94;2097892;28;20275;-61
2023/02/04 12:59:09;;;;;;;18.02;2.08;;;;;;;12.75;52.28;98309.03;2094383;28;20200;-62
2023/02/04 13:00:13;;;;;;;12.55;2.00;;;;;;;12.49;53.46;98310.56;2094371;28;20194;-62
2023/02/04 13:01:14;;;;;;;14.23;2.00;;;;;;;11.74;56.28;98302.75;2090535;28;20196;-62
2023/02/04 13:02:16;;;;;;;14.95;1.70;;;;;;;11.20;56.11;98301.31;2091050;28;20196;-62
2023/02/04 13:03:18;;;;;;;11.80;2.50;;;;;;;10.94;56.42;98310.56;2089566;28;20257;-62
2023/02/04 13:04:19;;;;;;;8.30;2.17;;;;;;;10.94;56.95;98307.94;2099098;28;20239;-62
2023/02/04 13:05:21;;;;;;;16.98;3.00;;;;;;;10.79;56.73;98301.25;2093868;28;20650;-62
2023/02/04 13:06:22;;;;;;;5.57;1.65;;;;;;;10.25;56.16;98305.66;2089754;28;20188;-63
2023/02/04 13:07:24;;;;;;;9.50;1.92;;;;;;;10.25;57.37;98321.34;2089328;28;20192;-63
2023/02/04 13:08:25;;;;;;;8.60;1.45;;;;;;;9.95;55.54;98320.97;2091620;28;20191;-63
2023/02/04 13:09:26;;;;;;;11.00;2.00;;;;;;;9.70;57.24;98315.25;2091424;28;20235;-62
2023/02/04 13:10:28;;;;;;;19.98;2.65;;;;;;;9.74;57.05;98316.91;2093660;28;20196;-62
2023/02/04 13:11:29;;;;;;;19.05;2.15;;;;;;;10.03;57.97;98310.41;2093808;28;20222;-63
2023/02/04 13:12:31;;;;;;;8.27;2.10;;;;;;;10.02;57.80;98319.09;2093371;28;20674;-62
2023/02/04 13:13:32;;;;;;;13.02;1.90;;;;;;;9.65;59.00;98298.81;2092444;28;20740;-63
2023/02/04 13:14:34;;;;;;;11.00;1.92;;;;;;;9.93;58.84;98320.09;2098722;28;20580;-62
2023/02/04 13:15:35;;;;;;;8.75;2.33;;;;;;;9.79;59.58;98303.81;2095406;28;20203;-63
2023/02/04 13:16:36;;;;;;;9.52;1.90;;;;;;;9.61;60.60;98310.13;2088544;28;20242;-62
2023/02/04 13:17:38;;;;;;;5.47;1.63;;;;;;;9.78;59.97;98309.91;2090489;28;20196;-62
2023/02/04 13:18:39;;;;;;;5.88;1.42;;;;;;;10.07;59.31;98321.66;2097566;28;20285;-62
2023/02/04 13:19:41;;;;;;;11.77;2.08;;;;;;;10.02;59.44;98306.06;2098893;28;20206;-62
2023/02/04 13:20:42;;;;;;;9.27;2.03;;;;;;;10.08;60.30;98312.91;2098561;28;20233;-62
2023/02/04 13:21:44;;;;;;;14.43;2.20;;;;;;;10.09;60.17;98312.91;2096682;28;20250;-62
2023/02/04 13:22:45;;;;;;;6.95;1.88;;;;;;;10.09;60.30;98314.63;2098294;28;20227;-63
2023/02/04 13:23:46;;;;;;;11.70;2.22;;;;;;;9.86;57.74;98313.25;2100947;28;20199;-62
2023/02/04 13:24:48;;;;;;;8.85;2.42;;;;;;;9.70;58.61;98310.03;2095177;28;20349;-63
2023/02/04 13:25:49;;;;;;;20.30;2.80;;;;;;;9.63;57.59;98313.59;2095385;28;20196;-62
2023/02/04 13:26:51;;;;;;;13.07;2.67;;;;;;;9.74;58.31;98314.31;2099596;28;20239;-62
2023/02/04 13:27:52;;;;;;;10.00;1.95;;;;;;;9.59;59.14;98310.16;2099523;28;20705;-62
2023/02/04 13:39:44;;;;;;;17.95;2.22;;;;;;;9.18;61.25;98303.78;2083858;28;20560;-64
2023/02/04 13:40:46;;;;;;;12.45;2.13;;;;;;;9.32;61.44;98291.41;2085804;28;20662;-63
2023/02/04 13:41:47;;;;;;;14.70;3.00;;;;;;;9.62;62.21;98314.47;2080018;28;20220;-64
2023/02/04 13:42:48;;;;;;;9.00;2.10;;;;;;;9.45;62.51;98302.53;2075780;28;20213;-64
2023/02/04 13:47:43;;;;;;;12.77;2.45;;;;;;;9.67;61.45;98319.63;2085265;28;20579;-61
2023/02/04 13:48:44;;;;;;;12.30;2.45;;;;;;;10.15;61.42;98326.75;2078746;28;20201;-61
2023/02/04 13:49:46;;;;;;;10.15;2.70;;;;;;;10.40;60.56;98322.00;2079628;28;20748;-62
2023/02/04 13:50:49;;;;;;;10.93;2.28;;;;;;;10.17;60.10;98296.25;2078527;28;20201;-61
2023/02/04 13:51:51;;;;;;;10.88;2.30;;;;;;;10.23;59.77;98307.47;2072989;28;20221;-62
2023/02/04 13:52:54;;;;;;;19.05;2.60;;;;;;;10.40;58.38;98328.09;2072527;28;20280;-61
2023/02/04 13:53:55;;;;;;;21.63;3.05;;;;;;;10.09;57.70;98331.19;2073460;28;20206;-61
2023/02/04 13:54:57;;;;;;;18.02;2.80;;;;;;;9.68;58.79;98323.97;2071988;28;20198;-61
2023/02/04 13:55:58;;;;;;;13.13;2.75;;;;;;;9.22;61.11;98336.72;2072933;28;20202;-61
2023/02/04 13:57:00;;;;;;;20.85;2.72;;;;;;;8.74;62.32;98332.06;2071460;28;20234;-61
2023/02/04 13:58:01;;;;;;;12.57;2.70;;;;;;;8.92;61.12;98331.00;2071997;28;20204;-68
2023/02/04 13:59:03;;;;;;;16.08;2.13;;;;;;;8.75;63.12;98325.13;2073649;28;20193;-70
2023/02/04 14:00:06;;;;;;;13.93;2.53;;;;;;;8.65;63.61;98322.59;2074371;28;20209;-68
2023/02/04 14:02:55;;;;;;;13.55;2.13;;;;;;;9.43;62.44;98329.50;2083406;28;20565;-67
2023/02/04 14:03:56;;;;;;;13.85;2.95;;;;;;;10.31;60.37;98328.22;2077909;28;20205;-67
2023/02/04 14:04:58;;;;;;;15.60;2.42;;;;;;;11.08;58.39;98331.19;2082629;28;20610;-67
2023/02/04 14:06:00;;;;;;;10.88;2.30;;;;;;;11.66;57.34;98330.88;2074159;28;20244;-67
2023/02/04 14:07:01;;;;;;;20.23;3.30;;;;;;;11.51;57.30;98319.84;2075420;28;20255;-67
2023/02/04 14:08:03;;;;;;;8.90;2.70;;;;;;;12.35;55.41;98326.63;2083525;28;20207;-68
2023/02/04 14:09:04;;;;;;;13.02;2.25;;;;;;;12.77;54.08;98329.97;2080216;28;20203;-61
2023/02/04 14:10:06;;;;;;;7.45;2.00;;;;;;;13.01;53.70;98331.06;2072004;28;20201;-61
2023/02/04 14:11:08;;;;;;;16.42;2.50;;;;;;;12.57;53.64;98307.78;2077172;28;20293;-61
2023/02/04 14:12:10;;;;;;;18.67;2.88;;;;;;;12.25;53.57;98320.78;2076069;28;20212;-62
2023/02/04 14:13:11;;;;;;;14.68;2.63;;;;;;;12.34;52.86;98330.19;2076342;28;20193;-62
2023/02/04 14:14:13;;;;;;;10.32;2.00;;;;;;;12.77;53.78;98329.97;2076752;28;20489;-62
2023/02/04 14:15:14;;;;;;;8.90;2.15;;;;;;;13.26;51.08;98325.13;2078994;28;20548;-62
2023/02/04 14:16:16;;;;;;;11.43;2.60;;;;;;;13.51;51.22;98326.16;2079861;28;20220;-62
2023/02/04 14:17:17;;;;;;;8.52;2.35;;;;;;;13.27;49.42;98318.94;2082410;28;20215;-62
2023/02/04 14:18:19;;;;;;;10.02;1.80;;;;;;;13.54;50.25;98328.66;2080110;28;20201;-62
2023/02/04 14:19:23;;;;;;;21.05;3.30;;;;;;;13.65;50.78;98324.84;2080467;28;20212;-63
2023/02/04 14:20:24;;;;;;;13.50;2.92;;;;;;;13.77;51.12;98314.00;2078694;28;20214;-62
2023/02/04 14:21:26;;;;;;;15.40;2.90;;;;;;;14.13;49.22;98324.25;2075968;28;20197;-62
2023/02/04 14:22:27;;;;;;;12.25;2.40;;;;;;;14.35;46.97;98315.66;2077461;28;20260;-62
2023/02/04 14:23:28;;;;;;;13.57;2.45;;;;;;;14.39;47.08;98326.94;2075792;28;20232;-62
2023/02/04 14:24:31;;;;;;;10.82;1.98;;;;;;;14.36;47.45;98327.91;2076141;28;20656;-62
2023/02/04 14:25:32;;;;;;;12.23;2.15;;;;;;;14.19;46.54;98323.19;2076691;28;20342;-62
2023/02/04 14:26:34;;;;;;;11.25;2.20;;;;;;;13.98;47.38;98333.47;2072401;28;20299;-61
2023/02/04 14:27:37;;;;;;;18.33;3.05;;;;;;;13.93;47.60;98322.25;2077381;28;20203;-62
2023/02/04 14:28:38;;;;;;;8.95;2.10;;;;;;;14.37;48.91;98304.19;2077170;28;20216;-62
2023/02/04 14:29:40;;;;;;;15.70;2.95;;;;;;;14.87;49.84;98334.06;2081163;28;20201;-62
2023/02/04 14:30:41;;;;;;;12.00;2.38;;;;;;;14.77;50.30;98324.78;2079904;28;20680;-62
2023/02/04 14:31:43;;;;;;;17.58;3.10;;;;;;;14.67;50.40;98325.09;2084337;28;20224;-62
2023/02/04 14:32:45;;;;;;;15.80;3.00;;;;;;;14.56;50.08;98334.25;2084367;28;20239;-62
2023/02/04 14:33:46;;;;;;;19.65;3.65;;;;;;;14.25;51.20;98322.13;2077282;28;20547;-62
2023/02/04 14:34:50;;;;;;;12.35;3.22;;;;;;;14.24;50.53;98323.88;2077081;28;20227;-62
2023/02/04 14:35:51;;;;;;;17.55;3.55;;;;;;;13.98;50.39;98332.59;2076928;28;20228;-62
2023/02/04 14:36:53;;;;;;;22.25;4.30;;;;;;;13.69;51.00;98329.97;2077234;28;20232;-62
2023/02/04 14:37:54;;;;;;;12.88;2.95;;;;;;;13.41;51.84;98336.94;2077582;28;20209;-62
2023/02/04 14:38:56;;;;;;;17.95;3.85;;;;;;;12.93;52.51;98336.50;2072957;28;20205;-62
2023/02/04 14:39:57;;;;;;;16.40;3.08;;;;;;;12.52;54.11;98335.81;2076312;28;20259;-62
2023/02/04 14:40:59;;;;;;;13.57;2.90;;;;;;;12.27;55.25;98335.59;2079526;28;20224;-62
2023/02/04 14:42:03;;;;;;;14.35;3.28;;;;;;;12.17;55.11;98334.97;2077579;28;20239;-62
2023/02/04 14:43:06;;;;;;;20.35;3.97;;;;;;;11.90;56.41;98339.94;2077882;28;20209;-61
2023/02/04 14:44:07;;;;;;;15.48;3.75;;;;;;;12.23;56.19;98343.53;2079370;28;20197;-62
2023/02/04 14:45:11;;;;;;;18.52;4.90;;;;;;;12.08;55.40;98342.13;2078579;28;20202;-61
2023/02/04 14:46:12;;;;;;;12.13;3.50;;;;;;;11.35;56.66;98324.56;2076517;28;20212;-62
2023/02/04 14:47:14;;;;;;;16.73;3.80;;;;;;;11.10;57.56;98327.66;2079961;28;20390;-62
2023/02/04 14:48:15;;;;;;;21.05;4.10;;;;;;;10.76;58.88;98337.91;2079158;28;20212;-62
2023/02/04 14:49:16;;;;;;;13.07;3.42;;;;;;;10.27;60.03;98343.06;2078862;28;20197;-61
2023/02/04 14:50:18;;;;;;;16.00;3.80;;;;;;;10.05;60.69;98347.75;2078114;28;20205;-62
2023/02/04 14:51:19;;;;;;;16.80;3.70;;;;;;;9.96;61.57;98345.28;2075014;28;20205;-61
2023/02/04 14:52:21;;;;;;;23.42;3.90;;;;;;;9.71;62.40;98348.25;2073169;28;20208;-62
2023/02/04 14:53:23;;;;;;;27.45;4.25;;;;;;;9.68;62.61;98344.84;2075513;28;20216;-61
2023/02/04 14:54:24;;;;;;;18.73;3.30;;;;;;;9.39;63.06;98341.72;2077201;28;20201;-61
2023/02/04 14:55:26;;;;;;;12.18;3.28;;;;;;;9.52;63.96;98350.25;2077804;28;20548;-61
2023/02/04 14:56:27;;;;;;;17.15;4.32;;;;;;;9.36;63.53;98343.50;2077102;28;20690;-61
2023/02/04 14:57:29;;;;;;;13.98;3.60;;;;;;;9.11;63.93;98354.25;2076932;28;20229;-61
2023/02/04 14:58:30;;;;;;;12.77;2.80;;;;;;;9.09;65.18;98356.88;2077100;28;20240;-62
2023/02/04 14:59:31;;;;;;;12.30;3.50;;;;;;;9.01;64.62;98345.66;2080407;28;20208;-61
2023/02/04 15:00:33;;;;;;;23.02;3.25;;;;;;;8.93;65.11;98352.72;2080051;28;20201;-61
2023/02/04 15:01:35;;;;;;;22.90;3.60;;;;;;;8.94;65.11;98357.06;2077270;28;20244;-61
2023/02/04 15:02:37;;;;;;;21.63;3.67;;;;;;;8.75;65.30;98338.16;2074455;28;20299;-61
2023/02/04 15:03:39;;;;;;;16.73;2.90;;;;;;;8.64;66.55;98356.47;2076523;28;20225;-62
2023/02/04 15:04:42;;;;;;;10.70;2.10;;;;;;;8.50;66.69;98362.66;2077336;28;20212;-62
2023/02/04 15:05:44;;;;;;;12.68;2.80;;;;;;;8.63;66.99;98365.16;2076130;28;20212;-61
2023/02/04 15:06:45;;;;;;;15.35;3.10;;;;;;;8.50;66.84;98360.06;2074562;28;20217;-62
2023/02/04 15:07:47;;;;;;;20.27;3.20;;;;;;;8.52;67.10;98361.78;2078803;28;20209;-62
2023/02/04 15:08:48;;;;;;;13.07;2.55;;;;;;;8.29;67.76;98353.28;2076934;28;20217;-62
